Time;durP1;ratioP1;P1;durP2;ratioP2;P2;SDS_P1;SDS_P2;PMS_P1;PMS_P2;Temp;Humidity;BMP_temperature;BMP_pressure;BME280_temperature;BME280_humidity;BME280_pressure;Samples;Min_cycle;Max_cycle;Signal;HPM_P1;HPM_P2
2022/04/22 00:01:30;;;;;;;3.10;1.95;;;;;;;;;;5051825;28;20025;-36
2022/04/22 00:03:56;;;;;;;3.13;2.00;;;;;;;;;;5051606;28;20044;-37
2022/04/22 00:06:21;;;;;;;3.67;2.53;;;;;;;;;;5051406;28;20366;-37
2022/04/22 00:08:47;;;;;;;3.95;2.38;;;;;;;;;;5051389;28;20033;-37
2022/04/22 00:11:31;;;;;;;2.97;2.55;;;;;;;;;;5051422;28;20049;-37
2022/04/22 00:13:58;;;;;;;3.20;2.13;;;;;;;;;;5050087;28;20110;-37
2022/04/22 00:16:25;;;;;;;3.30;2.00;;;;;;;;;;5051294;28;20451;-36
2022/04/22 00:18:50;;;;;;;4.20;2.08;;;;;;;;;;5051284;28;20021;-36
2022/04/22 00:21:15;;;;;;;2.90;2.20;;;;;;;;;;5051201;28;20357;-37
2022/04/22 00:23:41;;;;;;;2.88;1.95;;;;;;;;;;5050067;28;20071;-37
2022/04/22 00:26:06;;;;;;;3.58;2.40;;;;;;;;;;5051174;28;20021;-36
2022/04/22 00:28:31;;;;;;;1.88;1.67;;;;;;;;;;5051488;28;20382;-37
2022/04/22 00:30:57;;;;;;;2.00;1.73;;;;;;;;;;5051292;28;20013;-37
2022/04/22 00:33:22;;;;;;;2.30;1.70;;;;;;;;;;5051098;28;20032;-36
2022/04/22 00:35:48;;;;;;;3.45;2.10;;;;;;;;;;5051227;28;20109;-36
2022/04/22 00:38:14;;;;;;;3.17;1.80;;;;;;;;;;5051301;28;20037;-36
2022/04/22 00:40:39;;;;;;;2.42;1.90;;;;;;;;;;5051136;28;20023;-36
2022/04/22 00:43:15;;;;;;;6.72;2.58;;;;;;;;;;5051108;28;20029;-36
2022/04/22 00:45:40;;;;;;;1.55;1.38;;;;;;;;;;5051047;28;20075;-37
2022/04/22 00:48:06;;;;;;;1.85;1.70;;;;;;;;;;5051060;28;20024;-36
2022/04/22 00:50:31;;;;;;;2.33;1.48;;;;;;;;;;5049692;28;20033;-36
2022/04/22 00:52:57;;;;;;;2.72;1.85;;;;;;;;;;5054373;28;20090;-37
2022/04/22 00:55:23;;;;;;;1.80;1.60;;;;;;;;;;5054913;28;20040;-36
2022/04/22 00:57:49;;;;;;;4.00;2.03;;;;;;;;;;5054772;28;20047;-37
2022/04/22 01:00:15;;;;;;;1.85;1.33;;;;;;;;;;5054847;28;20036;-36
2022/04/22 01:02:40;;;;;;;4.35;2.05;;;;;;;;;;5054712;28;20017;-36
2022/04/22 01:10:35;;;;;;;2.55;1.85;;;;;;;;;;5054821;28;20029;-37
2022/04/22 01:13:01;;;;;;;1.98;1.33;;;;;;;;;;5054537;28;20060;-36
2022/04/22 01:15:27;;;;;;;2.10;1.58;;;;;;;;;;5054793;28;20060;-38
2022/04/22 01:17:52;;;;;;;3.33;1.60;;;;;;;;;;5053271;28;20488;-36
2022/04/22 01:20:18;;;;;;;2.13;1.33;;;;;;;;;;5053312;28;20037;-37
2022/04/22 01:22:43;;;;;;;3.30;2.05;;;;;;;;;;5054663;28;20025;-37
2022/04/22 01:25:09;;;;;;;2.72;1.42;;;;;;;;;;5054261;28;20047;-37
2022/04/22 01:27:34;;;;;;;3.08;1.38;;;;;;;;;;5054378;28;20025;-36
2022/04/22 01:30:01;;;;;;;4.10;1.88;;;;;;;;;;5054640;28;20036;-36
2022/04/22 01:32:27;;;;;;;3.13;1.38;;;;;;;;;;5054193;28;20112;-37
2022/04/22 01:34:53;;;;;;;3.72;1.90;;;;;;;;;;5054568;28;20028;-36
2022/04/22 01:37:18;;;;;;;1.80;1.52;;;;;;;;;;5054289;28;20075;-36
2022/04/22 01:39:43;;;;;;;1.40;1.25;;;;;;;;;;5054500;28;20033;-36
2022/04/22 01:42:09;;;;;;;2.05;1.33;;;;;;;;;;5054150;28;20459;-36
2022/04/22 01:44:36;;;;;;;4.85;1.95;;;;;;;;;;5053945;28;20433;-37
2022/04/22 01:47:01;;;;;;;1.70;1.38;;;;;;;;;;5054040;28;20581;-37
2022/04/22 01:49:27;;;;;;;1.58;1.38;;;;;;;;;;5053880;28;20115;-36
2022/04/22 01:51:53;;;;;;;2.75;2.22;;;;;;;;;;5054004;28;20105;-37
2022/04/22 01:54:19;;;;;;;2.90;1.40;;;;;;;;;;5053903;28;20025;-36
2022/04/22 01:56:44;;;;;;;3.75;1.27;;;;;;;;;;5053730;28;20096;-36
2022/04/22 01:59:09;;;;;;;1.52;1.40;;;;;;;;;;5053767;28;20033;-36
2022/04/22 02:01:35;;;;;;;4.68;1.65;;;;;;;;;;5054085;28;20021;-36
2022/04/22 02:04:00;;;;;;;2.28;1.63;;;;;;;;;;5051346;28;20043;-36
2022/04/22 02:06:26;;;;;;;1.88;1.70;;;;;;;;;;5053587;28;20136;-37
2022/04/22 02:08:52;;;;;;;1.95;1.73;;;;;;;;;;5053574;28;20151;-37
2022/04/22 02:11:17;;;;;;;1.98;1.38;;;;;;;;;;5053561;28;20131;-36
2022/04/22 02:13:42;;;;;;;1.17;1.08;;;;;;;;;;5053660;28;20360;-37
2022/04/22 02:16:08;;;;;;;1.70;1.23;;;;;;;;;;5053487;28;20036;-37
2022/04/22 02:18:36;;;;;;;1.83;1.60;;;;;;;;;;5053658;28;20044;-37
2022/04/22 02:21:05;;;;;;;2.67;1.98;;;;;;;;;;5053456;28;20048;-37
2022/04/22 02:23:31;;;;;;;2.05;1.35;;;;;;;;;;5053263;28;20072;-37
2022/04/22 02:25:56;;;;;;;2.38;1.50;;;;;;;;;;5053567;28;20059;-37
2022/04/22 02:28:34;;;;;;;0.80;0.80;;;;;;;;;;5053509;28;20303;-37
2022/04/22 02:31:09;;;;;;;4.68;1.67;;;;;;;;;;5053330;28;20028;-37
2022/04/22 02:33:36;;;;;;;2.53;1.63;;;;;;;;;;5053150;28;20558;-37
2022/04/22 02:36:02;;;;;;;2.22;2.00;;;;;;;;;;5053479;28;20021;-36
2022/04/22 02:38:28;;;;;;;2.35;1.75;;;;;;;;;;5053284;28;20032;-36
2022/04/22 02:46:22;;;;;;;2.25;1.80;;;;;;;;;;5052820;28;20060;-37
2022/04/22 02:48:48;;;;;;;2.28;1.50;;;;;;;;;;5052881;28;20044;-37
2022/04/22 02:51:13;;;;;;;3.38;1.63;;;;;;;;;;5051532;28;20028;-37
2022/04/22 02:53:39;;;;;;;2.88;1.60;;;;;;;;;;5052753;28;20052;-37
2022/04/22 02:56:05;;;;;;;1.80;1.70;;;;;;;;;;5052711;28;20044;-36
2022/04/22 02:58:30;;;;;;;1.58;1.38;;;;;;;;;;5052966;28;20031;-38
2022/04/22 03:00:56;;;;;;;3.95;1.75;;;;;;;;;;5052587;28;20044;-36
2022/04/22 03:03:21;;;;;;;3.13;1.85;;;;;;;;;;5052740;28;20094;-37
2022/04/22 03:05:47;;;;;;;2.88;2.13;;;;;;;;;;5052508;28;20056;-36
2022/04/22 03:08:12;;;;;;;4.65;2.28;;;;;;;;;;5052416;28;20017;-36
2022/04/22 03:10:37;;;;;;;3.78;1.60;;;;;;;;;;5052481;28;20028;-37
2022/04/22 03:13:04;;;;;;;2.55;1.67;;;;;;;;;;5052250;28;20110;-36
2022/04/22 03:15:29;;;;;;;2.90;1.80;;;;;;;;;;5052183;28;20036;-37
2022/04/22 03:17:55;;;;;;;1.52;1.42;;;;;;;;;;5052266;28;20017;-37
2022/04/22 03:20:20;;;;;;;3.63;1.80;;;;;;;;;;5052497;28;20524;-37
2022/04/22 03:22:46;;;;;;;1.70;1.60;;;;;;;;;;5052028;28;20028;-36
2022/04/22 03:25:11;;;;;;;3.30;1.63;;;;;;;;;;5052058;28;20029;-36
2022/04/22 03:27:37;;;;;;;2.42;1.90;;;;;;;;;;5052422;28;20028;-37
2022/04/22 03:30:03;;;;;;;4.10;1.73;;;;;;;;;;5052058;28;20548;-36
2022/04/22 03:32:28;;;;;;;2.33;1.73;;;;;;;;;;5051973;28;20029;-36
2022/04/22 03:34:53;;;;;;;2.47;1.35;;;;;;;;;;5052143;28;20044;-36
2022/04/22 03:37:19;;;;;;;2.20;1.75;;;;;;;;;;5051838;28;20521;-36
2022/04/22 03:39:44;;;;;;;2.13;1.75;;;;;;;;;;5052028;28;20033;-37
2022/04/22 03:42:10;;;;;;;1.85;1.45;;;;;;;;;;5052234;28;20028;-37
2022/04/22 03:44:36;;;;;;;2.10;1.88;;;;;;;;;;5051577;28;20037;-36
2022/04/22 03:47:03;;;;;;;4.22;1.42;;;;;;;;;;5052129;28;20017;-36
2022/04/22 03:49:29;;;;;;;3.65;1.60;;;;;;;;;;5051878;28;20053;-36
2022/04/22 03:51:54;;;;;;;2.50;1.80;;;;;;;;;;5050523;28;20139;-37
2022/04/22 03:54:23;;;;;;;1.70;1.58;;;;;;;;;;5051612;28;20129;-37
2022/04/22 03:59:32;;;;;;;2.08;1.88;;;;;;;;;;5051589;28;20079;-37
2022/04/22 04:01:57;;;;;;;3.08;1.63;;;;;;;;;;5051548;28;20819;-37
2022/04/22 04:04:23;;;;;;;3.03;1.52;;;;;;;;;;5051689;28;20047;-36
2022/04/22 04:06:48;;;;;;;2.65;1.50;;;;;;;;;;5051599;28;20021;-37
2022/04/22 04:17:26;;;;;;;1.48;1.27;;;;;;;;;;5051599;28;20032;-36
2022/04/22 04:25:19;;;;;;;1.33;1.15;;;;;;;;;;5051207;28;20433;-36
2022/04/22 04:27:46;;;;;;;2.72;1.80;;;;;;;;;;5050653;28;20506;-37
2022/04/22 04:30:12;;;;;;;1.88;1.67;;;;;;;;;;5051261;28;20021;-37
2022/04/22 04:32:37;;;;;;;2.80;1.95;;;;;;;;;;5051268;28;20017;-37
2022/04/22 04:35:03;;;;;;;2.08;1.50;;;;;;;;;;5051200;28;20112;-36
2022/04/22 04:37:28;;;;;;;2.35;1.67;;;;;;;;;;5051020;28;20019;-36
2022/04/22 04:39:55;;;;;;;1.90;1.58;;;;;;;;;;5051476;28;20083;-36
2022/04/22 04:42:21;;;;;;;2.38;1.70;;;;;;;;;;5050979;28;20009;-36
2022/04/22 04:44:46;;;;;;;1.23;1.08;;;;;;;;;;5051109;28;20051;-37
2022/04/22 04:47:11;;;;;;;1.80;1.63;;;;;;;;;;5051161;28;20028;-36
2022/04/22 04:49:37;;;;;;;3.95;1.92;;;;;;;;;;5049565;28;20067;-36
2022/04/22 04:52:02;;;;;;;3.00;1.80;;;;;;;;;;5051117;28;20592;-36
2022/04/22 04:54:28;;;;;;;2.22;1.70;;;;;;;;;;5050925;28;20026;-36
2022/04/22 04:56:53;;;;;;;5.00;1.42;;;;;;;;;;5050880;28;20067;-36
2022/04/22 04:59:19;;;;;;;2.63;1.65;;;;;;;;;;5050915;28;20036;-36
2022/04/22 05:01:45;;;;;;;1.70;1.30;;;;;;;;;;5050915;28;20459;-37
2022/04/22 05:04:11;;;;;;;2.33;1.90;;;;;;;;;;5050852;28;20056;-36
2022/04/22 05:06:36;;;;;;;1.83;1.30;;;;;;;;;;5050751;28;20056;-36
2022/04/22 05:09:02;;;;;;;1.55;1.17;;;;;;;;;;5050844;28;20029;-36
2022/04/22 05:11:27;;;;;;;2.65;1.25;;;;;;;;;;5050597;28;20084;-36
2022/04/22 05:13:53;;;;;;;1.73;1.52;;;;;;;;;;5050836;28;20041;-36
2022/04/22 05:16:18;;;;;;;4.03;1.25;;;;;;;;;;5050948;28;20033;-37
2022/04/22 05:18:44;;;;;;;3.85;1.45;;;;;;;;;;5050851;28;20498;-37
2022/04/22 05:21:09;;;;;;;1.95;0.88;;;;;;;;;;5050725;28;20025;-36
2022/04/22 05:23:35;;;;;;;2.33;1.13;;;;;;;;;;5050614;28;20044;-37
2022/04/22 05:26:01;;;;;;;1.02;0.77;;;;;;;;;;5050652;28;20013;-36
2022/04/22 05:28:27;;;;;;;2.80;1.35;;;;;;;;;;5050920;28;20056;-36
2022/04/22 05:33:37;;;;;;;1.25;1.00;;;;;;;;;;5050723;28;20088;-36
2022/04/22 05:36:03;;;;;;;0.80;0.80;;;;;;;;;;5049378;28;20479;-36
2022/04/22 05:38:29;;;;;;;1.65;1.23;;;;;;;;;;5051053;28;20028;-36
2022/04/22 05:40:54;;;;;;;1.70;1.02;;;;;;;;;;5054540;28;20021;-36
2022/04/22 05:43:19;;;;;;;1.58;1.48;;;;;;;;;;5052689;28;20041;-37
2022/04/22 05:45:45;;;;;;;2.55;1.30;;;;;;;;;;5054038;28;20017;-36
2022/04/22 05:48:11;;;;;;;1.60;1.33;;;;;;;;;;5054437;28;20029;-37
2022/04/22 05:50:36;;;;;;;1.10;1.00;;;;;;;;;;5053925;28;20138;-36
2022/04/22 05:53:01;;;;;;;5.60;1.45;;;;;;;;;;5054003;28;20430;-36
2022/04/22 05:55:27;;;;;;;1.65;0.90;;;;;;;;;;5053938;28;20027;-36
2022/04/22 05:57:53;;;;;;;1.08;0.93;;;;;;;;;;5054013;28;20431;-37
2022/04/22 06:00:19;;;;;;;1.15;1.05;;;;;;;;;;5053701;28;20379;-36
2022/04/22 06:02:46;;;;;;;1.30;1.08;;;;;;;;;;5053667;28;20029;-37
2022/04/22 06:05:12;;;;;;;1.13;0.93;;;;;;;;;;5054068;28;20032;-36
2022/04/22 06:07:38;;;;;;;1.77;1.27;;;;;;;;;;5053535;28;20436;-36
2022/04/22 06:12:51;;;;;;;1.65;0.80;;;;;;;;;;5053409;28;20041;-37
2022/04/22 06:15:16;;;;;;;1.58;0.90;;;;;;;;;;5053413;28;20119;-36
2022/04/22 06:17:42;;;;;;;0.93;0.82;;;;;;;;;;5053817;28;20537;-36
2022/04/22 06:20:08;;;;;;;1.55;0.80;;;;;;;;;;5053320;28;20477;-37
2022/04/22 06:22:33;;;;;;;3.67;1.30;;;;;;;;;;5053356;28;20091;-37
2022/04/22 06:24:58;;;;;;;1.52;0.88;;;;;;;;;;5053641;28;20108;-36
2022/04/22 06:27:28;;;;;;;1.92;1.00;;;;;;;;;;5053147;28;20056;-37
2022/04/22 06:29:54;;;;;;;0.65;0.50;;;;;;;;;;5053326;28;20059;-37
2022/04/22 06:32:21;;;;;;;1.65;0.85;;;;;;;;;;5053063;28;20056;-37
2022/04/22 06:34:47;;;;;;;2.10;1.20;;;;;;;;;;5053235;28;20437;-37
2022/04/22 06:37:12;;;;;;;1.75;0.60;;;;;;;;;;5053108;28;20116;-37
2022/04/22 06:47:52;;;;;;;4.32;0.60;;;;;;;;;;5053010;28;20020;-37
2022/04/22 06:50:19;;;;;;;0.70;0.57;;;;;;;;;;5052360;28;20398;-37
2022/04/22 06:52:46;;;;;;;0.47;0.35;;;;;;;;;;5053097;28;20036;-36
2022/04/22 06:55:13;;;;;;;0.63;0.40;;;;;;;;;;5052913;28;20025;-36
2022/04/22 06:57:39;;;;;;;0.77;0.68;;;;;;;;;;5051251;28;20029;-37
2022/04/22 07:00:05;;;;;;;1.20;0.50;;;;;;;;;;5052698;28;20029;-36
2022/04/22 07:02:31;;;;;;;0.50;0.50;;;;;;;;;;5051384;28;20025;-36
2022/04/22 07:04:56;;;;;;;1.73;0.70;;;;;;;;;;5052700;28;20075;-36
2022/04/22 07:07:22;;;;;;;0.77;0.52;;;;;;;;;;5052523;28;20135;-36
2022/04/22 07:09:48;;;;;;;1.83;0.60;;;;;;;;;;5052496;28;20017;-36
2022/04/22 07:12:13;;;;;;;0.63;0.63;;;;;;;;;;5052339;28;20049;-37
2022/04/22 07:14:41;;;;;;;0.75;0.68;;;;;;;;;;5052345;28;20040;-36
2022/04/22 07:17:09;;;;;;;1.58;0.85;;;;;;;;;;5050939;28;20068;-37
2022/04/22 07:19:34;;;;;;;0.90;0.40;;;;;;;;;;5052347;28;20017;-37
2022/04/22 07:22:00;;;;;;;0.63;0.57;;;;;;;;;;5050999;28;20127;-36
2022/04/22 07:24:26;;;;;;;0.65;0.40;;;;;;;;;;5052114;28;20029;-36
2022/04/22 07:26:53;;;;;;;1.90;0.57;;;;;;;;;;5052453;28;20035;-37
2022/04/22 07:29:18;;;;;;;0.45;0.30;;;;;;;;;;5052135;28;20021;-36
2022/04/22 07:31:44;;;;;;;0.38;0.38;;;;;;;;;;5052313;28;20017;-36
2022/04/22 07:34:10;;;;;;;0.88;0.40;;;;;;;;;;5052335;28;20085;-37
2022/04/22 07:36:36;;;;;;;0.38;0.38;;;;;;;;;;5052219;28;20488;-37
2022/04/22 07:39:01;;;;;;;0.60;0.38;;;;;;;;;;5051993;28;20032;-37
2022/04/22 07:41:28;;;;;;;0.30;0.30;;;;;;;;;;5052098;28;20025;-37
2022/04/22 07:46:57;;;;;;;2.42;0.40;;;;;;;;;;5051910;28;20063;-37
2022/04/22 07:49:23;;;;;;;0.40;0.30;;;;;;;;;;5051862;28;20379;-37
2022/04/22 07:51:50;;;;;;;0.20;0.20;;;;;;;;;;5051765;28;20013;-36
2022/04/22 07:54:15;;;;;;;0.63;0.38;;;;;;;;;;5050434;28;20028;-36
2022/04/22 07:56:44;;;;;;;2.38;0.38;;;;;;;;;;5051521;28;20021;-36
2022/04/22 07:59:12;;;;;;;0.38;0.38;;;;;;;;;;5051947;28;20383;-36
2022/04/22 08:01:38;;;;;;;0.45;0.40;;;;;;;;;;5050746;28;20086;-36
2022/04/22 08:04:03;;;;;;;0.73;0.35;;;;;;;;;;5051791;28;20479;-37
2022/04/22 08:06:29;;;;;;;2.17;0.32;;;;;;;;;;5050150;28;20017;-37
2022/04/22 08:08:54;;;;;;;0.40;0.40;;;;;;;;;;5051386;28;20041;-37
2022/04/22 08:11:20;;;;;;;1.17;0.32;;;;;;;;;;5051277;28;20052;-37
2022/04/22 08:13:46;;;;;;;0.68;0.40;;;;;;;;;;5051519;28;20033;-36
2022/04/22 08:16:12;;;;;;;0.47;0.45;;;;;;;;;;5051321;28;20025;-37
2022/04/22 08:18:38;;;;;;;1.63;0.28;;;;;;;;;;5051562;28;20056;-37
2022/04/22 08:21:03;;;;;;;0.82;0.68;;;;;;;;;;5051307;28;20550;-36
2022/04/22 08:23:29;;;;;;;0.43;0.40;;;;;;;;;;5051408;28;20048;-36
2022/04/22 08:25:55;;;;;;;0.63;0.47;;;;;;;;;;5051374;28;20549;-36
2022/04/22 08:28:20;;;;;;;1.52;0.68;;;;;;;;;;5049827;28;20068;-37
2022/04/22 08:30:46;;;;;;;0.45;0.45;;;;;;;;;;5049977;28;20071;-37
2022/04/22 08:33:12;;;;;;;1.30;0.73;;;;;;;;;;5051243;28;20029;-37
2022/04/22 08:35:37;;;;;;;0.47;0.40;;;;;;;;;;5051389;28;20029;-37
2022/04/22 08:38:05;;;;;;;1.02;0.43;;;;;;;;;;5049988;28;20036;-36
2022/04/22 08:40:31;;;;;;;0.43;0.40;;;;;;;;;;5051078;28;20025;-37
2022/04/22 08:43:00;;;;;;;0.52;0.47;;;;;;;;;;5051084;28;20036;-36
2022/04/22 08:45:26;;;;;;;0.40;0.40;;;;;;;;;;5051202;28;20071;-36
2022/04/22 08:50:37;;;;;;;0.73;0.20;;;;;;;;;;5050937;28;20214;-37
2022/04/22 08:53:04;;;;;;;0.47;0.25;;;;;;;;;;5051069;28;20409;-36
2022/04/22 08:55:29;;;;;;;0.47;0.35;;;;;;;;;;5051162;28;20033;-37
2022/04/22 08:57:55;;;;;;;0.30;0.30;;;;;;;;;;5051332;28;20021;-36
2022/04/22 09:00:22;;;;;;;0.57;0.45;;;;;;;;;;5050973;28;20490;-37
2022/04/22 09:02:48;;;;;;;0.30;0.30;;;;;;;;;;5050976;28;20025;-37
2022/04/22 09:05:13;;;;;;;0.45;0.30;;;;;;;;;;5050983;28;20062;-37
2022/04/22 09:07:42;;;;;;;0.30;0.30;;;;;;;;;;5050796;28;20485;-37
2022/04/22 09:10:08;;;;;;;1.02;0.60;;;;;;;;;;5050793;28;20505;-36
2022/04/22 09:12:34;;;;;;;0.20;0.20;;;;;;;;;;5051473;28;20041;-36
2022/04/22 09:15:00;;;;;;;0.70;0.57;;;;;;;;;;5054987;28;20033;-37
2022/04/22 09:17:29;;;;;;;0.28;0.28;;;;;;;;;;5053306;28;20036;-37
2022/04/22 09:19:57;;;;;;;0.28;0.28;;;;;;;;;;5053351;28;20627;-37
2022/04/22 09:22:23;;;;;;;0.55;0.30;;;;;;;;;;5053413;28;20024;-36
2022/04/22 09:24:50;;;;;;;0.20;0.20;;;;;;;;;;5054795;28;20047;-37
2022/04/22 09:27:16;;;;;;;0.28;0.28;;;;;;;;;;5053367;28;20048;-37
2022/04/22 09:29:55;;;;;;;0.52;0.32;;;;;;;;;;5054434;28;20411;-37
2022/04/22 09:32:21;;;;;;;1.42;0.35;;;;;;;;;;5052851;28;20033;-37
2022/04/22 09:34:47;;;;;;;0.63;0.40;;;;;;;;;;5054680;28;20021;-37
2022/04/22 09:42:46;;;;;;;0.20;0.20;;;;;;;;;;5054479;28;20116;-42
2022/04/22 09:45:12;;;;;;;0.70;0.40;;;;;;;;;;5054141;28;20033;-37
2022/04/22 09:47:40;;;;;;;0.90;0.82;;;;;;;;;;5054207;28;20112;-37
2022/04/22 09:50:08;;;;;;;0.60;0.30;;;;;;;;;;5052839;28;20025;-37
2022/04/22 09:52:36;;;;;;;0.45;0.30;;;;;;;;;;5054188;28;20407;-37
2022/04/22 09:55:16;;;;;;;0.63;0.40;;;;;;;;;;5054176;28;20017;-37
2022/04/22 09:57:58;;;;;;;0.20;0.20;;;;;;;;;;5053833;28;20029;-37
2022/04/22 10:00:24;;;;;;;0.38;0.30;;;;;;;;;;5054106;28;20021;-37
2022/04/22 10:02:50;;;;;;;0.22;0.20;;;;;;;;;;5054021;28;20059;-37
2022/04/22 10:05:20;;;;;;;0.88;0.40;;;;;;;;;;5052420;28;20544;-37
2022/04/22 10:07:47;;;;;;;0.30;0.30;;;;;;;;;;5053667;28;20060;-36
2022/04/22 10:10:14;;;;;;;0.85;0.73;;;;;;;;;;5053781;28;20033;-37
2022/04/22 10:12:41;;;;;;;2.72;0.30;;;;;;;;;;5053439;28;20438;-37
2022/04/22 10:15:09;;;;;;;0.63;0.30;;;;;;;;;;5052222;28;20387;-36
2022/04/22 10:17:37;;;;;;;0.65;0.30;;;;;;;;;;5053744;28;20360;-37
2022/04/22 10:20:03;;;;;;;0.25;0.25;;;;;;;;;;5053512;28;20103;-36
2022/04/22 10:22:31;;;;;;;0.50;0.22;;;;;;;;;;5053388;28;20021;-37
2022/04/22 10:24:57;;;;;;;0.20;0.20;;;;;;;;;;5052784;28;20044;-37
2022/04/22 10:27:23;;;;;;;0.20;0.20;;;;;;;;;;5053222;28;20063;-36
2022/04/22 10:29:48;;;;;;;0.20;0.20;;;;;;;;;;5053589;28;20024;-36
2022/04/22 10:32:15;;;;;;;0.28;0.28;;;;;;;;;;5053204;28;20021;-37
2022/04/22 10:34:42;;;;;;;0.32;0.32;;;;;;;;;;5053426;28;20031;-37
2022/04/22 10:37:16;;;;;;;0.20;0.20;;;;;;;;;;5053162;28;20447;-36
2022/04/22 10:39:41;;;;;;;0.28;0.28;;;;;;;;;;5053095;28;20036;-36
2022/04/22 10:42:15;;;;;;;0.40;0.40;;;;;;;;;;5053408;28;20071;-36
2022/04/22 10:47:42;;;;;;;0.30;0.30;;;;;;;;;;5053156;28;20392;-37
2022/04/22 10:50:26;;;;;;;1.38;0.40;;;;;;;;;;5053296;28;20029;-37
2022/04/22 10:53:04;;;;;;;2.20;0.38;;;;;;;;;;5052885;28;20459;-37
2022/04/22 10:55:30;;;;;;;0.20;0.20;;;;;;;;;;5053075;28;20053;-36
2022/04/22 10:58:13;;;;;;;4.55;0.40;;;;;;;;;;5052743;28;20017;-36
2022/04/22 11:00:42;;;;;;;0.43;0.20;;;;;;;;;;5052706;28;20039;-37
2022/04/22 11:03:19;;;;;;;0.75;0.45;;;;;;;;;;5052945;28;20021;-36
2022/04/22 11:05:47;;;;;;;3.08;0.60;;;;;;;;;;5052711;28;20360;-37
2022/04/22 11:08:25;;;;;;;0.40;0.40;;;;;;;;;;5053001;28;20429;-36
2022/04/22 11:10:53;;;;;;;0.40;0.40;;;;;;;;;;5052436;28;20060;-37
2022/04/22 11:13:29;;;;;;;1.02;0.50;;;;;;;;;;5052502;28;20025;-37
2022/04/22 11:15:58;;;;;;;1.50;0.68;;;;;;;;;;5052336;28;20032;-36
2022/04/22 11:18:23;;;;;;;1.30;0.47;;;;;;;;;;5052341;28;20017;-36
2022/04/22 11:20:58;;;;;;;1.35;0.60;;;;;;;;;;5052292;28;20025;-36
2022/04/22 11:23:23;;;;;;;1.25;0.65;;;;;;;;;;5052152;28;20503;-37
2022/04/22 11:25:51;;;;;;;0.40;0.40;;;;;;;;;;5052529;28;20044;-36
2022/04/22 11:28:17;;;;;;;0.52;0.47;;;;;;;;;;5052132;28;20044;-36
2022/04/22 11:30:42;;;;;;;0.90;0.40;;;;;;;;;;5052421;28;20039;-37
2022/04/22 11:33:08;;;;;;;1.00;0.90;;;;;;;;;;5052126;28;20392;-36
2022/04/22 11:35:34;;;;;;;0.45;0.40;;;;;;;;;;5051875;28;20021;-36
2022/04/22 11:38:07;;;;;;;1.02;0.50;;;;;;;;;;5052302;28;20045;-37
2022/04/22 11:40:37;;;;;;;0.73;0.57;;;;;;;;;;5052142;28;20163;-37
2022/04/22 11:43:06;;;;;;;1.70;0.70;;;;;;;;;;5052183;28;20090;-36
2022/04/22 11:45:34;;;;;;;1.58;0.65;;;;;;;;;;5052019;28;20383;-37
2022/04/22 11:48:05;;;;;;;0.60;0.30;;;;;;;;;;5050517;28;20072;-37
2022/04/22 11:50:35;;;;;;;0.73;0.73;;;;;;;;;;5051770;28;20086;-36
2022/04/22 11:53:01;;;;;;;1.70;0.40;;;;;;;;;;5050577;28;20468;-37
2022/04/22 11:55:26;;;;;;;0.40;0.40;;;;;;;;;;5051890;28;20035;-37
2022/04/22 11:57:52;;;;;;;0.82;0.68;;;;;;;;;;5051627;28;20013;-37
2022/04/22 12:05:49;;;;;;;1.08;0.88;;;;;;;;;;5051513;28;20040;-36
2022/04/22 12:08:15;;;;;;;0.40;0.40;;;;;;;;;;5051604;28;20025;-36
2022/04/22 12:10:43;;;;;;;7.15;0.90;;;;;;;;;;5051618;28;20187;-37
2022/04/22 12:13:12;;;;;;;1.15;0.68;;;;;;;;;;5051663;28;20039;-36
2022/04/22 12:15:39;;;;;;;1.15;0.93;;;;;;;;;;5049986;28;20044;-36
2022/04/22 12:18:05;;;;;;;0.50;0.50;;;;;;;;;;5051292;28;20055;-36
2022/04/22 12:20:32;;;;;;;0.88;0.60;;;;;;;;;;5051624;28;20087;-37
2022/04/22 12:22:57;;;;;;;1.35;0.90;;;;;;;;;;5051596;28;20013;-37
2022/04/22 12:25:23;;;;;;;1.15;0.75;;;;;;;;;;5051131;28;20403;-36
2022/04/22 12:28:06;;;;;;;3.42;1.20;;;;;;;;;;5051386;28;20104;-36
2022/04/22 12:30:37;;;;;;;1.20;1.10;;;;;;;;;;5051241;28;20025;-36
2022/04/22 12:33:03;;;;;;;1.02;0.68;;;;;;;;;;5051308;28;20033;-37
2022/04/22 12:35:29;;;;;;;0.85;0.85;;;;;;;;;;5051039;28;20379;-37
2022/04/22 12:37:55;;;;;;;0.80;0.70;;;;;;;;;;5051492;28;20047;-36
2022/04/22 12:40:26;;;;;;;3.45;0.60;;;;;;;;;;5051422;28;20025;-37
2022/04/22 12:42:51;;;;;;;1.67;0.98;;;;;;;;;;5051179;28;20471;-36
2022/04/22 12:53:46;;;;;;;1.20;1.10;;;;;;;;;;5054943;28;20033;-36
2022/04/22 12:56:11;;;;;;;2.10;0.75;;;;;;;;;;5055084;28;20079;-36
2022/04/22 12:58:52;;;;;;;2.08;0.93;;;;;;;;;;5055398;28;20040;-37
2022/04/22 13:01:27;;;;;;;1.38;1.02;;;;;;;;;;5054961;28;20035;-36
2022/04/22 13:03:53;;;;;;;1.02;0.88;;;;;;;;;;5054874;28;20559;-37
2022/04/22 13:06:40;;;;;;;1.00;0.80;;;;;;;;;;5054836;28;20104;-37
2022/04/22 13:09:07;;;;;;;1.60;0.88;;;;;;;;;;5054823;28;20031;-36
2022/04/22 13:11:33;;;;;;;3.20;1.35;;;;;;;;;;5054635;28;20045;-36
2022/04/22 13:14:00;;;;;;;1.38;0.93;;;;;;;;;;5054936;28;20048;-36
2022/04/22 13:16:25;;;;;;;1.05;0.98;;;;;;;;;;5054656;28;20027;-37
2022/04/22 13:18:51;;;;;;;1.35;0.90;;;;;;;;;;5054759;28;20029;-37
2022/04/22 13:21:16;;;;;;;3.08;0.90;;;;;;;;;;5054538;28;20048;-37
2022/04/22 13:23:41;;;;;;;1.35;0.93;;;;;;;;;;5054691;28;20098;-36
2022/04/22 13:26:07;;;;;;;4.68;1.17;;;;;;;;;;5054459;28;20086;-37
2022/04/22 13:28:32;;;;;;;1.40;1.02;;;;;;;;;;5053444;28;20037;-37
2022/04/22 13:30:58;;;;;;;1.52;1.13;;;;;;;;;;5054591;28;20021;-36
2022/04/22 13:33:24;;;;;;;1.75;1.08;;;;;;;;;;5054604;28;20849;-37
2022/04/22 13:35:49;;;;;;;3.33;0.90;;;;;;;;;;5054304;28;20410;-36
2022/04/22 13:38:15;;;;;;;1.95;0.80;;;;;;;;;;5054340;28;20549;-37
2022/04/22 13:40:41;;;;;;;0.90;0.80;;;;;;;;;;5054476;28;20017;-37
2022/04/22 13:43:06;;;;;;;0.77;0.75;;;;;;;;;;5054325;28;20143;-37
2022/04/22 13:53:43;;;;;;;0.73;0.63;;;;;;;;;;5053976;28;20094;-37
2022/04/22 13:56:09;;;;;;;1.40;0.90;;;;;;;;;;5053879;28;20032;-41
2022/04/22 13:58:37;;;;;;;1.42;1.00;;;;;;;;;;5053417;28;20033;-37
2022/04/22 14:01:03;;;;;;;1.02;0.70;;;;;;;;;;5052105;28;20484;-36
2022/04/22 14:03:29;;;;;;;6.20;1.30;;;;;;;;;;5053923;28;20036;-37
2022/04/22 14:05:54;;;;;;;1.38;0.77;;;;;;;;;;5052486;28;20051;-37
2022/04/22 14:08:20;;;;;;;1.15;1.00;;;;;;;;;;5054089;28;20044;-37
2022/04/22 14:10:46;;;;;;;1.50;1.13;;;;;;;;;;5053654;28;20389;-37
2022/04/22 14:13:13;;;;;;;1.23;1.00;;;;;;;;;;5052399;28;20040;-36
2022/04/22 14:15:39;;;;;;;1.80;1.25;;;;;;;;;;5053268;28;20030;-37
2022/04/22 14:18:05;;;;;;;2.95;1.13;;;;;;;;;;5053458;28;20397;-36
2022/04/22 14:20:31;;;;;;;1.52;1.02;;;;;;;;;;5053530;28;20059;-37
2022/04/22 14:22:56;;;;;;;1.02;0.65;;;;;;;;;;5053709;28;20032;-37
2022/04/22 14:25:22;;;;;;;2.05;1.15;;;;;;;;;;5053503;28;20025;-37
2022/04/22 14:27:47;;;;;;;2.28;1.13;;;;;;;;;;5053353;28;20025;-37
2022/04/22 14:30:12;;;;;;;1.10;0.90;;;;;;;;;;5053368;28;20082;-37
2022/04/22 14:32:38;;;;;;;2.10;0.95;;;;;;;;;;5053489;28;20039;-36
2022/04/22 14:35:04;;;;;;;1.40;1.13;;;;;;;;;;5053323;28;20099;-36
2022/04/22 14:37:29;;;;;;;2.25;1.20;;;;;;;;;;5053396;28;20037;-36
2022/04/22 14:39:57;;;;;;;1.58;0.77;;;;;;;;;;5053251;28;20590;-36
2022/04/22 14:42:23;;;;;;;1.40;1.05;;;;;;;;;;5053110;28;20400;-37
2022/04/22 14:44:48;;;;;;;6.18;1.20;;;;;;;;;;5053127;28;20032;-39
2022/04/22 14:47:14;;;;;;;1.48;1.15;;;;;;;;;;5053117;28;20531;-37
2022/04/22 14:49:40;;;;;;;1.73;1.27;;;;;;;;;;5052906;28;20379;-36
2022/04/22 14:52:06;;;;;;;1.42;1.02;;;;;;;;;;5052955;28;20033;-36
2022/04/22 14:54:32;;;;;;;1.20;1.08;;;;;;;;;;5053060;28;20021;-37
2022/04/22 14:56:57;;;;;;;2.75;1.30;;;;;;;;;;5052811;28;20464;-38
2022/04/22 14:59:23;;;;;;;2.10;1.20;;;;;;;;;;5053153;28;20071;-37
2022/04/22 15:01:49;;;;;;;1.98;0.90;;;;;;;;;;5052530;28;20075;-37
2022/04/22 15:04:14;;;;;;;1.73;1.58;;;;;;;;;;5052963;28;20065;-37
2022/04/22 15:06:43;;;;;;;3.15;1.15;;;;;;;;;;5052839;28;20021;-36
2022/04/22 15:09:09;;;;;;;1.25;0.90;;;;;;;;;;5052557;28;20376;-36
2022/04/22 15:11:35;;;;;;;1.50;0.98;;;;;;;;;;5051934;28;20275;-36
2022/04/22 15:14:03;;;;;;;1.77;1.10;;;;;;;;;;5052656;28;20424;-37
2022/04/22 15:16:32;;;;;;;3.45;1.05;;;;;;;;;;5051146;28;20033;-37
2022/04/22 15:24:25;;;;;;;2.30;1.55;;;;;;;;;;5052237;28;20087;-36
2022/04/22 15:26:54;;;;;;;4.40;1.30;;;;;;;;;;5052260;28;20045;-37
2022/04/22 15:29:20;;;;;;;1.88;1.42;;;;;;;;;;5052139;28;20033;-37
2022/04/22 15:31:46;;;;;;;1.70;1.20;;;;;;;;;;5050890;28;20032;-37
2022/04/22 15:34:11;;;;;;;1.42;1.30;;;;;;;;;;5052436;28;20394;-37
2022/04/22 15:36:41;;;;;;;1.75;1.20;;;;;;;;;;5050620;28;20024;-36
2022/04/22 15:39:07;;;;;;;1.40;1.10;;;;;;;;;;5052311;28;20052;-37
2022/04/22 15:41:33;;;;;;;2.17;1.20;;;;;;;;;;5051918;28;20111;-37
2022/04/22 15:44:00;;;;;;;2.95;0.90;;;;;;;;;;5051834;28;20112;-37
2022/04/22 15:46:26;;;;;;;1.65;1.10;;;;;;;;;;5051801;28;20020;-37
2022/04/22 15:48:52;;;;;;;2.60;0.95;;;;;;;;;;5051885;28;20078;-37
2022/04/22 15:51:18;;;;;;;4.97;1.63;;;;;;;;;;5051772;28;20055;-37
2022/04/22 15:53:45;;;;;;;2.60;1.30;;;;;;;;;;5051620;28;20117;-37
2022/04/22 15:56:13;;;;;;;1.80;1.15;;;;;;;;;;5051710;28;20025;-37
2022/04/22 15:58:42;;;;;;;6.32;1.15;;;;;;;;;;5051874;28;20028;-37
2022/04/22 16:01:10;;;;;;;1.90;1.38;;;;;;;;;;5050447;28;20056;-37
2022/04/22 16:03:36;;;;;;;1.60;1.27;;;;;;;;;;5051444;28;20033;-37